Bookmark and Share
Track history (hours):
 

Chemroad Wing

Last reported at 2014-Apr-17 06:34 UTC. Time now 2014-Apr-17 06:48 UTC.
Position N 29°44' E 122°26'.

Length 170 m; draft 11.5 m.

Type: Ship (hazmat cat B). MMSI: 357740000.

NotesDate/timePositionNaut miles runAvg speedWind from/ knotsBaromVisibWave heightAir tempDewpointWater temp
2014-Apr-17 06:34N 29°44' E 122°26'4 3.7
2014-Apr-17 05:33N 29°42' E 122°30'6 5.9
2014-Apr-17 04:33N 29°38' E 122°35'2110.5
2014-Apr-17 02:31N 29°17' E 122°36'24512.8
2014-Apr-16 07:21N 25°29' E 120°56'1614.2
2014-Apr-16 06:15N 25°15' E 120°48'3713.4
2014-Apr-16 03:29N 24°43' E 120°27'  
2014-Apr-10 13:33N 01°14' E 104°01'1111.4
2014-Apr-10 12:33N 01°10' E 103°50'1111.3
2014-Apr-10 11:32N 01°04' E 103°41'9 9.2
2014-Apr-10 10:33N 01°09' E 103°34'7 6.8
2014-Apr-10 09:33N 01°13' E 103°39'0 0.0
2014-Apr-10 08:16N 01°13' E 103°39'0 0.1
2014-Apr-10 07:25N 01°13' E 103°39'0 0.0
2014-Apr-10 06:31N 01°13' E 103°39'0 0.0
2014-Apr-10 04:28N 01°13' E 103°39'0 0.0
2014-Apr-10 02:25N 01°13' E 103°39'2 2.1
2014-Apr-10 01:33N 01°12' E 103°38'5 4.7
2014-Apr-10 00:33N 01°12' E 103°33'  

Dump ship's entire track history

sailing weather and tide predictions

Chemroad Wing — 3EAB8 — position and weather